createdAt,value
2022-09-20T00:01:52.875Z,3.90
2022-09-20T00:04:19.397Z,4.07
2022-09-20T00:06:47.000Z,4.43
2022-09-20T00:09:14.067Z,4.23
2022-09-20T00:11:40.951Z,2.97
2022-09-20T00:14:08.285Z,4.03
2022-09-20T00:16:39.251Z,4.90
2022-09-20T00:19:06.834Z,4.43
2022-09-20T00:21:37.024Z,3.77
2022-09-20T00:24:05.221Z,6.60
2022-09-20T00:26:32.093Z,7.30
2022-09-20T00:28:59.744Z,8.43
2022-09-20T00:31:26.828Z,6.60
2022-09-20T00:34:13.141Z,7.23
2022-09-20T00:36:40.265Z,5.40
2022-09-20T00:39:07.349Z,4.27
2022-09-20T00:41:34.364Z,5.97
2022-09-20T00:44:03.125Z,5.27
2022-09-20T00:46:35.480Z,3.33
2022-09-20T00:49:07.937Z,3.67
2022-09-20T00:51:38.222Z,5.63
2022-09-20T00:54:09.290Z,4.60
2022-09-20T00:56:40.183Z,5.27
2022-09-20T00:59:12.630Z,2.87
2022-09-20T01:01:39.878Z,5.47
2022-09-20T01:04:09.344Z,4.33
2022-09-20T01:06:36.556Z,4.60
2022-09-20T01:09:06.612Z,3.70
2022-09-20T01:11:35.223Z,7.43
2022-09-20T01:14:02.641Z,3.77
2022-09-20T01:16:30.620Z,5.07
2022-09-20T01:18:59.924Z,6.40
2022-09-20T01:21:29.157Z,3.73
2022-09-20T01:24:07.830Z,2.70
2022-09-20T01:27:07.547Z,5.37
2022-09-20T01:30:01.675Z,4.10
2022-09-20T01:32:35.946Z,4.13
2022-09-20T01:35:03.095Z,5.03
2022-09-20T01:37:40.270Z,3.10
2022-09-20T01:40:17.155Z,2.13
2022-09-20T01:42:53.073Z,7.27
2022-09-20T01:45:25.111Z,4.20
2022-09-20T01:48:03.628Z,4.97
2022-09-20T01:50:38.811Z,1.57
2022-09-20T01:53:26.323Z,3.97
2022-09-20T01:56:19.124Z,3.50
2022-09-20T01:59:23.614Z,5.97
2022-09-20T02:02:08.979Z,3.47
2022-09-20T02:04:58.098Z,3.17
2022-09-20T02:07:54.088Z,3.63
2022-09-20T02:10:40.493Z,3.27
2022-09-20T02:13:11.201Z,4.33
2022-09-20T02:16:04.738Z,4.07
2022-09-20T02:18:47.507Z,4.13
2022-09-20T02:21:28.405Z,4.63
2022-09-20T02:24:17.763Z,3.77
2022-09-20T02:27:06.083Z,3.70
2022-09-20T02:29:41.723Z,1.93
2022-09-20T02:32:28.590Z,4.00
2022-09-20T02:35:28.876Z,1.93
2022-09-20T02:38:08.726Z,3.73
2022-09-20T02:41:03.697Z,3.10
2022-09-20T02:43:35.456Z,2.10
2022-09-20T02:46:09.498Z,2.20
2022-09-20T02:48:44.173Z,4.30
2022-09-20T02:51:21.433Z,2.33
2022-09-20T02:53:57.738Z,2.70
2022-09-20T02:56:33.815Z,4.03
2022-09-20T02:59:07.970Z,6.57
2022-09-20T03:01:47.518Z,4.27
2022-09-20T03:04:25.411Z,4.73
2022-09-20T03:07:01.559Z,5.70
2022-09-20T03:09:34.759Z,4.43
2022-09-20T03:12:13.555Z,4.60
2022-09-20T03:14:47.464Z,6.33
2022-09-20T03:17:22.091Z,4.50
2022-09-20T03:20:04.435Z,4.70
2022-09-20T03:22:42.019Z,6.20
2022-09-20T03:25:30.825Z,5.03
2022-09-20T03:28:09.553Z,5.93
2022-09-20T03:30:53.475Z,4.50
2022-09-20T03:33:29.611Z,4.50
2022-09-20T03:36:13.284Z,3.90
2022-09-20T03:38:57.253Z,4.40
2022-09-20T03:41:56.837Z,4.30
2022-09-20T03:44:49.124Z,5.57
2022-09-20T03:47:31.514Z,7.00
2022-09-20T03:50:17.100Z,5.90
2022-09-20T03:53:28.753Z,6.07
2022-09-20T03:56:38.227Z,5.83
2022-09-20T03:59:18.742Z,5.90
2022-09-20T04:02:13.389Z,4.00
2022-09-20T04:04:46.359Z,3.10
2022-09-20T04:07:19.105Z,3.33
2022-09-20T04:10:14.007Z,2.40
2022-09-20T04:12:56.024Z,3.60
2022-09-20T04:15:30.973Z,1.70
2022-09-20T04:18:04.712Z,2.80
2022-09-20T04:20:40.390Z,2.87
2022-09-20T04:23:17.845Z,1.27
2022-09-20T04:25:47.623Z,3.07
2022-09-20T04:28:21.461Z,3.43
2022-09-20T04:30:51.306Z,2.90
2022-09-20T04:33:24.840Z,2.33
2022-09-20T04:36:18.345Z,2.03
2022-09-20T04:38:50.342Z,3.10
2022-09-20T04:41:37.455Z,2.27
2022-09-20T04:44:39.125Z,3.07
2022-09-20T04:47:53.519Z,3.87
2022-09-20T04:50:46.682Z,3.90
2022-09-20T04:53:43.184Z,3.70
2022-09-20T04:56:20.090Z,2.67
2022-09-20T04:59:00.792Z,5.80
2022-09-20T05:02:09.777Z,2.90
2022-09-20T05:05:14.281Z,2.43
2022-09-20T05:08:13.834Z,4.27
2022-09-20T05:11:23.032Z,2.90
2022-09-20T05:14:08.352Z,4.30
2022-09-20T05:16:54.687Z,5.77
2022-09-20T05:19:45.957Z,4.63
2022-09-20T05:22:41.619Z,5.47
2022-09-20T05:25:42.736Z,6.20
2022-09-20T05:28:22.574Z,4.60
2022-09-20T05:31:02.909Z,3.70
2022-09-20T05:33:48.286Z,5.73
2022-09-20T05:36:34.344Z,6.97
2022-09-20T05:39:15.059Z,4.07
2022-09-20T05:41:47.168Z,4.13
2022-09-20T05:48:01.109Z,3.30
2022-09-20T05:50:41.403Z,2.13
2022-09-20T05:56:59.528Z,4.60
2022-09-20T06:03:53.739Z,1.67
2022-09-20T06:06:57.878Z,1.90
2022-09-20T06:10:15.322Z,3.83
2022-09-20T06:16:41.148Z,2.97
2022-09-20T06:20:01.969Z,2.70
2022-09-20T06:26:23.342Z,3.27
2022-09-20T06:33:16.007Z,2.93
2022-09-20T06:44:18.466Z,2.80
2022-09-20T06:47:10.523Z,2.70
2022-09-20T06:49:43.607Z,4.07
2022-09-20T06:52:14.911Z,2.17
2022-09-20T06:54:44.942Z,3.70
2022-09-20T06:57:15.407Z,3.87
2022-09-20T07:11:06.650Z,2.73
2022-09-20T07:28:15.575Z,2.93
2022-09-20T07:30:42.512Z,4.10
2022-09-20T07:33:09.857Z,3.80
2022-09-20T07:35:37.283Z,1.87
2022-09-20T07:38:03.972Z,4.17
2022-09-20T07:40:31.356Z,3.63
2022-09-20T07:42:58.312Z,2.07
2022-09-20T07:45:26.297Z,3.33
2022-09-20T07:47:53.896Z,1.80
2022-09-20T07:50:21.367Z,2.33
2022-09-20T07:52:50.367Z,2.30
2022-09-20T07:55:17.375Z,2.30
2022-09-20T07:57:44.867Z,1.50
2022-09-20T08:00:12.307Z,3.37
2022-09-20T08:02:40.564Z,2.13
2022-09-20T08:05:11.223Z,4.80
2022-09-20T08:07:38.864Z,2.70
2022-09-20T08:10:07.732Z,3.87
2022-09-20T08:18:11.280Z,5.93
2022-09-20T08:20:38.754Z,5.70
2022-09-20T08:23:22.537Z,5.17
2022-09-20T08:25:50.843Z,3.20
2022-09-20T08:28:23.575Z,2.40
2022-09-20T08:30:52.764Z,1.63
2022-09-20T08:33:20.048Z,2.43
2022-09-20T08:35:49.574Z,3.47
2022-09-20T08:41:09.435Z,1.83
2022-09-20T08:43:51.053Z,4.63
2022-09-20T08:46:23.318Z,1.63
2022-09-20T08:48:54.300Z,3.03
2022-09-20T08:51:22.897Z,1.67
2022-09-20T08:53:52.677Z,2.00
2022-09-20T08:56:31.547Z,5.25
2022-09-20T08:59:13.326Z,1.35
2022-09-20T09:01:42.921Z,2.60
2022-09-20T09:04:16.623Z,0.77
2022-09-20T09:06:44.805Z,3.50
2022-09-20T09:09:19.353Z,2.83
2022-09-20T09:11:48.469Z,2.25
2022-09-20T09:14:48.141Z,1.42
2022-09-20T09:17:16.541Z,1.60
2022-09-20T09:19:47.724Z,1.00
2022-09-20T09:22:28.532Z,1.42
2022-09-20T09:25:23.343Z,1.25
2022-09-20T09:27:52.584Z,0.90
2022-09-20T09:30:22.429Z,3.47
2022-09-20T09:32:53.113Z,4.95
2022-09-20T09:35:31.127Z,1.33
2022-09-20T09:37:59.976Z,1.42
2022-09-20T09:40:28.513Z,1.40
2022-09-20T09:42:57.018Z,3.65
2022-09-20T09:45:31.620Z,0.90
2022-09-20T09:48:00.741Z,1.15
2022-09-20T09:50:31.257Z,2.13
2022-09-20T09:52:59.915Z,1.37
2022-09-20T09:55:36.403Z,1.27
2022-09-20T09:58:09.592Z,1.57
2022-09-20T10:00:42.423Z,1.17
2022-09-20T10:03:24.832Z,1.60
2022-09-20T10:06:06.980Z,1.77
2022-09-20T10:08:41.559Z,0.90
2022-09-20T10:11:20.945Z,2.57
2022-09-20T10:14:02.316Z,1.00
2022-09-20T10:16:35.241Z,3.13
2022-09-20T10:19:13.434Z,3.57
2022-09-20T10:21:54.703Z,1.67
2022-09-20T10:24:32.339Z,4.30
2022-09-20T10:27:39.828Z,1.47
2022-09-20T10:30:12.070Z,1.30
2022-09-20T10:33:00.357Z,2.00
2022-09-20T10:35:49.160Z,5.03
2022-09-20T10:38:19.536Z,1.47
2022-09-20T10:41:24.298Z,7.73
2022-09-20T10:44:09.542Z,1.63
2022-09-20T10:46:49.619Z,2.00
2022-09-20T10:49:29.006Z,2.60
2022-09-20T10:52:36.911Z,3.20
2022-09-20T10:55:18.102Z,3.43
2022-09-20T10:58:23.841Z,3.80
2022-09-20T11:01:00.927Z,2.70
2022-09-20T11:03:38.468Z,5.23
2022-09-20T11:06:15.230Z,2.60
2022-09-20T11:08:44.362Z,3.83
2022-09-20T11:11:19.500Z,4.30
2022-09-20T11:13:56.341Z,2.33
2022-09-20T11:16:28.928Z,3.30
2022-09-20T11:19:00.205Z,2.30
2022-09-20T11:21:33.343Z,2.63
2022-09-20T11:24:05.297Z,1.10
2022-09-20T11:26:37.966Z,0.70
2022-09-20T11:29:15.524Z,1.53
2022-09-20T11:31:46.348Z,1.43
2022-09-20T11:34:21.551Z,1.20
2022-09-20T11:36:59.077Z,2.13
2022-09-20T11:39:45.437Z,1.00
2022-09-20T11:42:26.418Z,1.63
2022-09-20T11:44:54.729Z,2.63
2022-09-20T11:59:17.992Z,1.77
2022-09-20T12:01:46.088Z,2.00
2022-09-20T12:04:32.701Z,2.13
2022-09-20T12:07:09.438Z,2.57
2022-09-20T12:09:40.401Z,3.10
2022-09-20T12:12:19.889Z,3.37
2022-09-20T12:14:54.675Z,1.10
2022-09-20T12:17:59.043Z,2.23
2022-09-20T12:20:58.895Z,3.17
2022-09-20T12:23:46.259Z,0.80
2022-09-20T12:26:40.854Z,3.10
2022-09-20T12:29:43.257Z,3.23
2022-09-20T12:32:51.870Z,5.30
2022-09-20T12:35:58.727Z,3.60
2022-09-20T12:38:38.493Z,2.33
2022-09-20T12:41:09.138Z,1.63
2022-09-20T12:43:45.824Z,2.97
2022-09-20T12:46:22.051Z,4.70
2022-09-20T12:48:48.988Z,4.27
2022-09-20T12:51:44.051Z,2.27
2022-09-20T12:54:16.235Z,4.23
2022-09-20T12:56:46.805Z,2.97
2022-09-20T13:10:43.418Z,1.70
2022-09-20T13:13:26.281Z,1.87
2022-09-20T13:15:54.134Z,2.50
2022-09-20T13:18:23.727Z,1.13
2022-09-20T13:20:55.931Z,0.73
2022-09-20T13:23:26.930Z,1.23
2022-09-20T13:25:59.520Z,0.20
2022-09-20T13:28:37.979Z,0.60
2022-09-20T13:38:33.639Z,1.43
2022-09-20T13:41:08.295Z,0.50
2022-09-20T13:43:39.646Z,1.90
2022-09-20T13:46:11.165Z,0.97
2022-09-20T13:48:38.412Z,1.10
2022-09-20T13:51:17.601Z,1.73
2022-09-20T13:53:46.006Z,0.87
2022-09-20T13:56:20.380Z,0.77
2022-09-20T13:58:47.506Z,0.43
2022-09-20T14:01:25.614Z,2.83
2022-09-20T14:03:53.027Z,1.40
2022-09-20T14:06:27.609Z,1.13
2022-09-20T14:08:55.905Z,3.17
2022-09-20T14:11:27.230Z,2.10
2022-09-20T14:13:56.266Z,0.83
2022-09-20T14:16:28.117Z,1.73
2022-09-20T14:18:55.472Z,1.00
2022-09-20T14:21:24.773Z,0.50
2022-09-20T14:23:53.268Z,0.83
2022-09-20T14:26:25.611Z,0.47
2022-09-20T14:28:52.836Z,0.70
2022-09-20T14:31:23.463Z,0.60
2022-09-20T14:33:55.086Z,0.90
2022-09-20T14:36:24.039Z,0.50
2022-09-20T14:38:53.444Z,2.07
2022-09-20T14:41:32.104Z,1.80
2022-09-20T14:44:01.626Z,3.43
2022-09-20T14:46:34.661Z,1.43
2022-09-20T14:49:21.285Z,0.83
2022-09-20T14:51:48.383Z,0.67
2022-09-20T14:54:27.256Z,0.93
2022-09-20T14:56:56.859Z,1.17
2022-09-20T14:59:27.777Z,0.70
2022-09-20T15:02:02.726Z,1.03
2022-09-20T15:04:32.006Z,1.77
2022-09-20T15:07:01.448Z,0.90
2022-09-20T15:09:29.201Z,1.00
2022-09-20T15:12:06.797Z,1.63
2022-09-20T15:14:37.423Z,1.30
2022-09-20T15:17:05.108Z,1.73
2022-09-20T15:19:32.124Z,1.13
2022-09-20T15:21:59.481Z,0.50
2022-09-20T15:24:26.528Z,2.03
2022-09-20T15:26:53.363Z,0.97
2022-09-20T15:29:21.029Z,1.23
2022-09-20T15:31:48.384Z,0.30
2022-09-20T15:34:15.483Z,1.00
2022-09-20T15:36:43.049Z,1.37
2022-09-20T15:39:09.953Z,0.50
2022-09-20T15:41:37.054Z,0.50
2022-09-20T15:44:03.932Z,1.60
2022-09-20T15:46:31.515Z,1.50
2022-09-20T15:49:00.269Z,1.10
2022-09-20T15:51:29.667Z,0.73
2022-09-20T15:53:57.943Z,1.30
2022-09-20T15:56:26.982Z,0.87
2022-09-20T15:58:58.341Z,1.07
2022-09-20T16:01:27.435Z,0.70
2022-09-20T16:03:55.229Z,1.47
2022-09-20T16:06:23.067Z,2.03
2022-09-20T16:08:50.184Z,1.10
2022-09-20T16:11:22.737Z,1.90
2022-09-20T16:13:53.743Z,1.17
2022-09-20T16:16:20.819Z,1.50
2022-09-20T16:19:06.624Z,1.33
2022-09-20T16:21:34.756Z,0.87
2022-09-20T16:24:01.814Z,1.30
2022-09-20T16:26:30.577Z,1.40
2022-09-20T16:28:57.540Z,1.90
2022-09-20T16:31:29.501Z,1.50
2022-09-20T16:33:56.432Z,1.73
2022-09-20T16:36:27.333Z,2.13
2022-09-20T16:38:55.061Z,0.83
2022-09-20T16:41:22.641Z,1.90
2022-09-20T16:43:51.529Z,1.27
2022-09-20T16:46:19.696Z,2.90
2022-09-20T16:48:47.162Z,2.13
2022-09-20T16:51:16.543Z,1.53
2022-09-20T16:53:44.574Z,3.03
2022-09-20T16:56:19.325Z,2.10
2022-09-20T16:58:46.454Z,2.83
2022-09-20T17:01:13.105Z,2.67
2022-09-20T17:03:40.310Z,1.70
2022-09-20T17:06:08.065Z,3.40
2022-09-20T17:08:37.920Z,1.53
2022-09-20T17:11:09.693Z,4.50
2022-09-20T17:13:40.761Z,3.13
2022-09-20T17:16:09.249Z,2.97
2022-09-20T17:18:41.155Z,1.60
2022-09-20T17:21:09.778Z,1.63
2022-09-20T17:23:37.089Z,2.07
2022-09-20T17:26:05.727Z,3.67
2022-09-20T17:28:37.262Z,1.87
2022-09-20T17:31:05.100Z,3.70
2022-09-20T17:33:34.365Z,2.73
2022-09-20T17:36:02.815Z,2.70
2022-09-20T17:38:32.483Z,2.67
2022-09-20T17:41:07.671Z,2.20
2022-09-20T17:43:35.041Z,3.90
2022-09-20T17:46:07.339Z,4.17
2022-09-20T17:48:34.331Z,2.27
2022-09-20T17:51:01.808Z,2.50
2022-09-20T17:53:29.562Z,3.33
2022-09-20T17:55:56.728Z,5.37
2022-09-20T17:58:24.419Z,4.43
2022-09-20T18:00:51.012Z,3.43
2022-09-20T18:03:20.859Z,2.50
2022-09-20T18:05:48.675Z,3.47
2022-09-20T18:08:16.261Z,3.10
2022-09-20T18:10:43.128Z,5.77
2022-09-20T18:13:12.386Z,3.87
2022-09-20T18:15:41.781Z,4.17
2022-09-20T18:18:08.613Z,5.57
2022-09-20T18:20:36.143Z,3.53
2022-09-20T18:23:05.144Z,3.90
2022-09-20T18:25:52.604Z,4.20
2022-09-20T18:28:19.553Z,5.27
2022-09-20T18:30:46.498Z,5.23
2022-09-20T18:33:13.832Z,4.90
2022-09-20T18:35:48.156Z,5.67
2022-09-20T18:38:17.062Z,5.07
2022-09-20T18:40:54.885Z,4.20
2022-09-20T18:43:22.485Z,6.17
2022-09-20T18:45:55.300Z,7.70
2022-09-20T18:48:26.378Z,5.77
2022-09-20T18:51:02.239Z,6.47
2022-09-20T18:53:30.365Z,4.70
2022-09-20T18:55:58.481Z,6.40
2022-09-20T18:58:30.063Z,6.97
2022-09-20T19:01:05.213Z,4.70
2022-09-20T19:03:39.568Z,5.00
2022-09-20T19:06:33.219Z,5.30
2022-09-20T19:09:06.213Z,5.60
2022-09-20T19:11:37.267Z,7.03
2022-09-20T19:14:14.752Z,5.27
2022-09-20T19:16:43.061Z,7.60
2022-09-20T19:19:41.334Z,7.97
2022-09-20T19:25:40.437Z,6.00
2022-09-20T19:28:09.744Z,8.23
2022-09-20T19:30:42.150Z,6.23
2022-09-20T19:33:19.093Z,7.77
2022-09-20T19:35:50.762Z,5.60
2022-09-20T19:38:37.347Z,5.03
2022-09-20T19:41:26.939Z,5.57
2022-09-20T19:44:19.005Z,5.80
2022-09-20T19:47:00.919Z,9.63
2022-09-20T19:49:47.207Z,5.47
2022-09-20T19:52:14.722Z,9.90
2022-09-20T19:54:46.520Z,8.70
2022-09-20T19:57:21.744Z,88.90
2022-09-20T19:59:50.027Z,70.13
2022-09-20T20:02:17.856Z,244.53
2022-09-20T20:04:45.611Z,202.33
2022-09-20T20:07:24.330Z,86.10
2022-09-20T20:09:56.301Z,137.63
2022-09-20T20:12:32.852Z,12.53
2022-09-20T20:15:08.888Z,10.57
2022-09-20T20:17:48.624Z,6.57
2022-09-20T20:20:23.542Z,5.77
2022-09-20T20:23:21.154Z,66.77
2022-09-20T20:25:59.319Z,91.33
2022-09-20T20:28:27.419Z,37.73
2022-09-20T20:30:59.883Z,29.10
2022-09-20T20:33:27.375Z,102.77
2022-09-20T20:35:56.449Z,264.23
2022-09-20T20:38:26.025Z,26.13
2022-09-20T20:41:07.297Z,200.90
2022-09-20T20:43:36.392Z,96.43
2022-09-20T20:46:06.533Z,316.93
2022-09-20T20:48:34.071Z,208.37
2022-09-20T20:51:01.909Z,106.83
2022-09-20T20:53:32.622Z,28.00
2022-09-20T20:56:01.495Z,6.40
2022-09-20T20:58:30.375Z,5.10
2022-09-20T21:01:04.535Z,4.77
2022-09-20T21:03:31.513Z,6.10
2022-09-20T21:05:58.406Z,6.00
2022-09-20T21:08:30.862Z,6.60
2022-09-20T21:11:00.400Z,6.73
2022-09-20T21:13:29.612Z,8.40
2022-09-20T21:16:21.606Z,7.23
2022-09-20T21:19:38.555Z,6.00
2022-09-20T21:22:05.610Z,6.40
2022-09-20T21:24:32.951Z,6.87
2022-09-20T21:27:00.707Z,7.47
2022-09-20T21:29:27.713Z,6.33
2022-09-20T21:31:55.445Z,5.73
2022-09-20T21:34:22.566Z,9.07
2022-09-20T21:36:49.504Z,7.23
2022-09-20T21:39:19.522Z,8.97
2022-09-20T21:41:47.470Z,6.57
2022-09-20T21:44:14.983Z,8.60
2022-09-20T21:46:42.446Z,9.93
2022-09-20T21:49:12.505Z,8.80
2022-09-20T21:51:57.245Z,7.47
2022-09-20T21:54:27.861Z,9.77
2022-09-20T21:56:58.649Z,6.57
2022-09-20T21:59:26.208Z,6.90
2022-09-20T22:02:05.383Z,6.57
2022-09-20T22:04:42.062Z,8.60
2022-09-20T22:07:12.614Z,6.23
2022-09-20T22:09:40.737Z,5.87
2022-09-20T22:12:14.662Z,10.17
2022-09-20T22:14:42.158Z,7.10
2022-09-20T22:17:18.474Z,8.87
2022-09-20T22:19:50.385Z,6.40
2022-09-20T22:22:17.709Z,10.07
2022-09-20T22:25:01.871Z,6.87
2022-09-20T22:27:30.101Z,7.77
2022-09-20T22:30:10.561Z,6.73
2022-09-20T22:33:42.142Z,9.17
2022-09-20T22:36:49.269Z,10.43
2022-09-20T22:39:16.852Z,9.20
2022-09-20T22:41:43.937Z,6.47
2022-09-20T22:44:11.101Z,7.27
2022-09-20T22:46:38.426Z,8.80
2022-09-20T22:49:05.531Z,8.17
2022-09-20T22:51:33.016Z,6.63
2022-09-20T22:54:00.095Z,9.13
2022-09-20T22:56:29.083Z,8.77
2022-09-20T22:58:59.146Z,9.53
2022-09-20T23:01:27.351Z,10.23
2022-09-20T23:03:55.869Z,6.27
2022-09-20T23:06:24.853Z,6.37
2022-09-20T23:08:53.033Z,6.87
2022-09-20T23:11:20.262Z,7.40
2022-09-20T23:13:47.851Z,10.13
2022-09-20T23:16:17.879Z,6.80
2022-09-20T23:18:44.545Z,8.57
2022-09-20T23:21:11.395Z,6.70
2022-09-20T23:23:39.197Z,8.33
2022-09-20T23:26:07.694Z,9.47
2022-09-20T23:28:34.893Z,7.87
2022-09-20T23:31:04.768Z,6.97
2022-09-20T23:33:31.863Z,7.57
2022-09-20T23:35:58.676Z,7.57
2022-09-20T23:38:25.705Z,6.80
2022-09-20T23:40:53.259Z,6.90
2022-09-20T23:43:19.785Z,7.33
2022-09-20T23:45:46.606Z,8.23
2022-09-20T23:48:13.839Z,5.77
2022-09-20T23:50:40.639Z,6.53
2022-09-20T23:53:07.516Z,5.00
2022-09-20T23:55:34.323Z,4.70
2022-09-20T23:58:01.130Z,6.27
